createdAt,value
2023-04-04T00:01:11.364Z,98463.15
2023-04-04T00:03:43.086Z,98458.67
2023-04-04T00:06:11.490Z,98458.41
2023-04-04T00:08:39.701Z,98464.08
2023-04-04T00:11:07.930Z,98469.80
2023-04-04T00:13:38.276Z,98468.52
2023-04-04T00:16:06.908Z,98468.23
2023-04-04T00:18:38.211Z,98470.29
2023-04-04T00:21:06.717Z,98480.07
2023-04-04T00:23:35.041Z,98489.33
2023-04-04T00:26:03.573Z,98482.19
2023-04-04T00:28:31.797Z,98484.27
2023-04-04T00:31:00.926Z,98486.69
2023-04-04T00:33:30.547Z,98486.23
2023-04-04T00:35:59.793Z,98485.56
2023-04-04T00:38:29.833Z,98490.83
2023-04-04T00:40:58.006Z,98488.82
2023-04-04T00:43:27.279Z,98488.89
2023-04-04T00:45:55.632Z,98485.80
2023-04-04T00:48:25.030Z,98482.02
2023-04-04T00:50:53.381Z,98485.27
2023-04-04T00:53:21.632Z,98486.21
2023-04-04T00:55:50.161Z,98484.66
2023-04-04T00:58:19.306Z,98485.39
2023-04-04T01:00:48.079Z,98483.42
2023-04-04T01:03:26.295Z,98480.68
2023-04-04T01:05:55.959Z,98474.81
2023-04-04T01:08:26.532Z,98465.16
2023-04-04T01:10:56.541Z,98453.64
2023-04-04T01:13:25.174Z,98447.59
2023-04-04T01:15:53.766Z,98442.73
2023-04-04T01:18:23.312Z,98445.55
2023-04-04T01:21:03.204Z,98438.14
2023-04-04T01:23:51.811Z,98442.44
2023-04-04T01:26:22.224Z,98442.57
2023-04-04T01:28:50.591Z,98449.55
2023-04-04T01:31:22.494Z,98449.73
2023-04-04T01:34:14.267Z,98449.73
2023-04-04T01:38:20.883Z,98447.55
2023-04-04T01:40:51.310Z,98449.16
2023-04-04T01:43:20.681Z,98440.31
2023-04-04T01:46:15.371Z,98429.98
2023-04-04T01:48:46.720Z,98420.94
2023-04-04T01:51:18.595Z,98414.55
2023-04-04T01:53:47.022Z,98403.95
2023-04-04T01:56:15.498Z,98398.05
2023-04-04T01:58:43.845Z,98400.52
2023-04-04T02:01:12.980Z,98406.17
2023-04-04T02:03:42.620Z,98404.09
2023-04-04T02:06:11.979Z,98403.20
2023-04-04T02:08:41.500Z,98402.39
2023-04-04T02:11:10.560Z,98397.96
2023-04-04T02:13:46.324Z,98397.62
2023-04-04T02:16:16.261Z,98393.16
2023-04-04T02:18:45.091Z,98390.38
2023-04-04T02:21:14.666Z,98385.09
2023-04-04T02:23:42.849Z,98378.15
2023-04-04T02:26:11.230Z,98378.11
2023-04-04T02:28:48.280Z,98383.58
2023-04-04T02:31:16.869Z,98391.63
2023-04-04T02:33:46.404Z,98397.77
2023-04-04T02:36:16.135Z,98403.70
2023-04-04T02:38:45.262Z,98407.96
2023-04-04T02:41:13.918Z,98410.70
2023-04-04T02:43:43.675Z,98415.57
2023-04-04T02:46:21.113Z,98418.80
2023-04-04T02:48:53.429Z,98424.38
2023-04-04T02:51:21.621Z,98427.16
2023-04-04T02:53:50.383Z,98427.75
2023-04-04T02:56:25.711Z,98428.88
2023-04-04T02:58:55.993Z,98433.92
2023-04-04T03:01:24.359Z,98442.30
2023-04-04T03:03:53.248Z,98437.69
2023-04-04T03:06:22.584Z,98429.84
2023-04-04T03:08:51.178Z,98421.84
2023-04-04T03:11:21.600Z,98421.08
2023-04-04T03:13:51.801Z,98420.24
2023-04-04T03:16:22.574Z,98417.42
2023-04-04T03:18:52.399Z,98417.27
2023-04-04T03:21:29.390Z,98415.38
2023-04-04T03:23:58.984Z,98415.77
2023-04-04T03:26:28.467Z,98422.95
2023-04-04T03:28:56.949Z,98421.70
2023-04-04T03:31:26.165Z,98424.35
2023-04-04T03:33:54.721Z,98426.08
2023-04-04T03:36:23.613Z,98416.59
2023-04-04T03:38:53.974Z,98410.61
2023-04-04T03:43:17.864Z,98406.45
2023-04-04T03:45:47.879Z,98407.58
2023-04-04T03:48:17.190Z,98415.22
2023-04-04T03:50:45.567Z,98413.14
2023-04-04T03:53:15.003Z,98412.25
2023-04-04T03:55:45.424Z,98405.81
2023-04-04T03:58:15.833Z,98408.14
2023-04-04T04:00:44.380Z,98401.45
2023-04-04T04:03:15.617Z,98403.14
2023-04-04T04:05:45.273Z,98405.95
2023-04-04T04:08:16.190Z,98408.84
2023-04-04T04:10:46.549Z,98406.83
2023-04-04T04:13:15.267Z,98403.91
2023-04-04T04:15:43.588Z,98404.87
2023-04-04T04:18:17.298Z,98406.81
2023-04-04T04:20:45.883Z,98398.78
2023-04-04T04:23:14.148Z,98397.51
2023-04-04T04:25:42.753Z,98399.66
2023-04-04T04:28:19.103Z,98403.38
2023-04-04T04:30:48.868Z,98410.44
2023-04-04T04:33:20.272Z,98413.62
2023-04-04T04:36:03.303Z,98412.04
2023-04-04T04:38:39.855Z,98416.31
2023-04-04T04:41:08.210Z,98420.87
2023-04-04T04:43:43.184Z,98417.02
2023-04-04T04:46:11.506Z,98416.21
2023-04-04T04:48:48.462Z,98414.80
2023-04-04T04:51:18.147Z,98421.50
2023-04-04T04:53:52.737Z,98421.69
2023-04-04T04:56:22.519Z,98423.06
2023-04-04T04:58:52.359Z,98422.98
2023-04-04T05:01:27.491Z,98421.16
2023-04-04T05:03:56.855Z,98419.38
2023-04-04T05:06:31.620Z,98418.64
2023-04-04T05:09:07.191Z,98416.31
2023-04-04T05:11:39.456Z,98417.83
2023-04-04T05:14:09.658Z,98421.11
2023-04-04T05:16:45.429Z,98422.48
2023-04-04T05:19:15.777Z,98420.02
2023-04-04T05:21:48.222Z,98421.73
2023-04-04T05:24:28.793Z,98420.52
2023-04-04T05:27:00.584Z,98426.75
2023-04-04T05:29:33.950Z,98432.23
2023-04-04T05:32:09.911Z,98429.73
2023-04-04T05:34:41.764Z,98426.10
2023-04-04T05:37:13.484Z,98423.28
2023-04-04T05:39:49.169Z,98425.58
2023-04-04T05:42:17.841Z,98429.87
2023-04-04T05:44:50.158Z,98428.14
2023-04-04T05:47:22.094Z,98433.41
2023-04-04T05:49:50.837Z,98435.64
2023-04-04T05:52:21.843Z,98434.52
2023-04-04T05:54:51.460Z,98437.30
2023-04-04T05:57:25.891Z,98438.95
2023-04-04T06:00:02.429Z,98437.65
2023-04-04T06:02:34.443Z,98432.02
2023-04-04T06:05:04.982Z,98430.52
2023-04-04T06:07:39.714Z,98431.22
2023-04-04T06:10:10.581Z,98428.46
2023-04-04T06:12:40.531Z,98430.25
2023-04-04T06:15:12.191Z,98429.38
2023-04-04T06:17:42.908Z,98427.05
2023-04-04T06:20:15.063Z,98429.77
2023-04-04T06:22:44.562Z,98429.67
2023-04-04T06:25:14.724Z,98430.95
2023-04-04T06:27:43.793Z,98433.19
2023-04-04T06:30:14.652Z,98433.72
2023-04-04T06:32:45.306Z,98435.13
2023-04-04T06:35:20.106Z,98440.16
2023-04-04T06:37:56.996Z,98439.60
2023-04-04T06:40:27.880Z,98444.48
2023-04-04T06:42:58.528Z,98437.30
2023-04-04T06:45:39.471Z,98433.77
2023-04-04T06:52:23.593Z,98437.95
2023-04-04T06:54:52.760Z,98435.06
2023-04-04T06:57:24.936Z,98433.09
2023-04-04T06:59:54.318Z,98433.80
2023-04-04T07:02:22.580Z,98440.13
2023-04-04T07:04:50.955Z,98437.39
2023-04-04T07:07:19.247Z,98440.10
2023-04-04T07:09:47.927Z,98441.52
2023-04-04T07:12:16.652Z,98439.88
2023-04-04T07:14:45.488Z,98439.49
2023-04-04T07:17:23.591Z,98445.50
2023-04-04T07:19:53.041Z,98445.35
2023-04-04T07:22:21.584Z,98448.83
2023-04-04T07:24:50.510Z,98452.31
2023-04-04T07:27:19.168Z,98454.82
2023-04-04T07:29:47.754Z,98456.27
2023-04-04T07:32:16.114Z,98457.29
2023-04-04T07:34:45.512Z,98453.88
2023-04-04T07:37:13.695Z,98458.13
2023-04-04T07:39:42.284Z,98456.58
2023-04-04T07:42:10.904Z,98455.40
2023-04-04T07:44:49.764Z,98459.83
2023-04-04T07:47:18.394Z,98460.14
2023-04-04T07:49:46.727Z,98462.02
2023-04-04T07:52:15.014Z,98465.30
2023-04-04T07:54:43.242Z,98467.75
2023-04-04T07:57:12.064Z,98470.50
2023-04-04T07:59:42.741Z,98464.45
2023-04-04T08:02:15.195Z,98463.48
2023-04-04T08:04:43.850Z,98459.92
2023-04-04T08:07:12.040Z,98456.33
2023-04-04T08:09:40.370Z,98460.28
2023-04-04T08:12:09.804Z,98463.77
2023-04-04T08:14:38.622Z,98466.06
2023-04-04T08:17:08.772Z,98464.02
2023-04-04T08:19:42.060Z,98466.52
2023-04-04T08:22:10.507Z,98461.92
2023-04-04T08:24:38.735Z,98462.75
2023-04-04T08:27:07.474Z,98464.30
2023-04-04T08:29:36.502Z,98461.44
2023-04-04T08:32:05.240Z,98460.36
2023-04-04T08:34:34.730Z,98458.64
2023-04-04T08:37:03.035Z,98462.86
2023-04-04T08:39:31.801Z,98460.48
2023-04-04T08:42:06.718Z,98464.91
2023-04-04T08:44:37.563Z,98463.45
2023-04-04T08:47:06.177Z,98460.86
2023-04-04T08:49:41.542Z,98462.07
2023-04-04T08:52:10.818Z,98460.08
2023-04-04T08:54:44.441Z,98462.02
2023-04-04T08:57:12.720Z,98463.02
2023-04-04T08:59:41.021Z,98463.83
2023-04-04T09:02:09.484Z,98465.85
2023-04-04T09:04:38.023Z,98465.46
2023-04-04T09:07:06.449Z,98468.04
2023-04-04T09:09:34.983Z,98464.15
2023-04-04T09:12:03.507Z,98471.45
2023-04-04T09:14:32.026Z,98465.40
2023-04-04T09:17:01.081Z,98463.08
2023-04-04T09:19:29.655Z,98468.98
2023-04-04T09:21:58.032Z,98472.27
2023-04-04T09:24:40.135Z,98468.99
2023-04-04T09:27:11.895Z,98470.86
2023-04-04T09:29:41.064Z,98472.45
2023-04-04T09:32:18.570Z,98476.27
2023-04-04T09:34:46.881Z,98476.45
2023-04-04T09:37:15.584Z,98476.33
2023-04-04T09:39:44.425Z,98473.91
2023-04-04T09:42:13.724Z,98474.58
2023-04-04T09:44:44.778Z,98474.95
2023-04-04T09:47:31.986Z,98474.73
2023-04-04T09:50:01.263Z,98469.27
2023-04-04T09:52:36.974Z,98468.10
2023-04-04T09:57:13.098Z,98464.80
2023-04-04T09:59:42.974Z,98464.43
2023-04-04T10:02:11.644Z,98463.05
2023-04-04T10:04:40.853Z,98458.13
2023-04-04T10:07:15.425Z,98455.27
2023-04-04T10:09:43.960Z,98451.87
2023-04-04T10:12:12.327Z,98452.02
2023-04-04T10:14:47.855Z,98447.46
2023-04-04T10:17:16.772Z,98447.25
2023-04-04T10:19:45.024Z,98444.92
2023-04-04T10:22:17.524Z,98447.22
2023-04-04T10:24:46.400Z,98453.56
2023-04-04T10:27:14.663Z,98451.27
2023-04-04T10:29:44.269Z,98451.41
2023-04-04T10:32:17.434Z,98452.36
2023-04-04T10:34:47.825Z,98448.30
2023-04-04T10:37:22.542Z,98447.05
2023-04-04T10:40:08.975Z,98453.92
2023-04-04T10:42:40.217Z,98457.62
2023-04-04T10:45:19.749Z,98458.66
2023-04-04T10:47:49.469Z,98455.43
2023-04-04T10:50:17.965Z,98451.35
2023-04-04T10:52:46.290Z,98451.86
2023-04-04T10:55:16.599Z,98448.23
2023-04-04T10:57:52.088Z,98447.17
2023-04-04T11:00:23.425Z,98448.97
2023-04-04T11:02:53.383Z,98443.09
2023-04-04T11:05:28.079Z,98442.51
2023-04-04T11:10:32.142Z,98436.86
2023-04-04T11:13:16.616Z,98435.47
2023-04-04T11:15:45.958Z,98433.83
2023-04-04T11:18:30.599Z,98433.59
2023-04-04T11:21:06.743Z,98436.72
2023-04-04T11:23:50.223Z,98431.41
2023-04-04T11:26:39.806Z,98432.46
2023-04-04T11:29:08.353Z,98431.50
2023-04-04T11:31:44.066Z,98429.73
2023-04-04T11:34:13.519Z,98424.90
2023-04-04T11:36:43.216Z,98427.92
2023-04-04T11:39:15.803Z,98426.65
2023-04-04T11:41:59.010Z,98426.95
2023-04-04T11:44:29.754Z,98422.49
2023-04-04T11:47:02.840Z,98419.17
2023-04-04T11:56:13.676Z,98414.02
2023-04-04T11:58:42.093Z,98414.96
2023-04-04T12:01:14.833Z,98414.40
2023-04-04T12:03:43.656Z,98410.16
2023-04-04T12:06:12.249Z,98411.20
2023-04-04T12:08:42.658Z,98409.46
2023-04-04T12:11:11.221Z,98406.63
2023-04-04T12:13:46.960Z,98407.54
2023-04-04T12:16:20.296Z,98405.48
2023-04-04T12:18:49.776Z,98400.61
2023-04-04T12:21:25.118Z,98401.65
2023-04-04T12:23:54.387Z,98396.79
2023-04-04T12:26:23.710Z,98394.87
2023-04-04T12:28:57.283Z,98395.30
2023-04-04T12:31:27.419Z,98391.12
2023-04-04T12:33:55.993Z,98392.88
2023-04-04T12:36:26.541Z,98388.11
2023-04-04T12:39:00.323Z,98385.94
2023-04-04T12:41:35.793Z,98385.44
2023-04-04T12:44:05.677Z,98378.54
2023-04-04T12:46:41.090Z,98377.62
2023-04-04T12:49:14.237Z,98376.03
2023-04-04T12:51:43.352Z,98372.17
2023-04-04T12:54:27.712Z,98367.48
2023-04-04T12:56:59.032Z,98364.11
2023-04-04T12:59:32.146Z,98354.08
2023-04-04T13:02:07.771Z,98356.15
2023-04-04T13:04:38.150Z,98360.41
2023-04-04T13:07:27.816Z,98359.56
2023-04-04T13:10:00.381Z,98357.36
2023-04-04T13:12:58.923Z,98350.32
2023-04-04T13:15:52.713Z,98355.14
2023-04-04T13:18:25.474Z,98356.70
2023-04-04T13:20:54.917Z,98355.25
2023-04-04T13:23:23.438Z,98351.98
2023-04-04T13:25:54.443Z,98347.16
2023-04-04T13:28:23.659Z,98338.45
2023-04-04T13:30:52.428Z,98328.61
2023-04-04T13:33:25.204Z,98325.29
2023-04-04T13:35:54.216Z,98331.22
2023-04-04T13:38:27.031Z,98332.27
2023-04-04T13:40:57.367Z,98337.63
2023-04-04T13:43:27.191Z,98339.23
2023-04-04T13:45:56.164Z,98340.16
2023-04-04T13:48:28.198Z,98337.77
2023-04-04T13:50:57.597Z,98341.02
2023-04-04T13:58:21.289Z,98350.11
2023-04-04T14:00:49.813Z,98347.80
2023-04-04T14:12:05.945Z,98355.39
2023-04-04T14:14:35.735Z,98362.53
2023-04-04T14:17:20.139Z,98360.92
2023-04-04T14:19:48.699Z,98357.84
2023-04-04T14:22:18.870Z,98359.53
2023-04-04T14:24:49.152Z,98364.61
2023-04-04T14:27:17.867Z,98370.62
2023-04-04T14:29:48.393Z,98369.66
2023-04-04T14:32:20.252Z,98370.45
2023-04-04T14:35:01.349Z,98369.30
2023-04-04T14:37:29.964Z,98367.92
2023-04-04T14:39:59.446Z,98373.55
2023-04-04T14:42:32.735Z,98375.23
2023-04-04T14:45:05.194Z,98378.12
2023-04-04T14:47:35.252Z,98381.60
2023-04-04T14:50:04.423Z,98386.02
2023-04-04T14:52:33.040Z,98385.52
2023-04-04T14:55:02.222Z,98387.41
2023-04-04T14:57:51.992Z,98388.50
2023-04-04T15:00:26.827Z,98389.27
2023-04-04T15:02:55.669Z,98386.77
2023-04-04T15:05:33.641Z,98391.04
2023-04-04T15:08:02.488Z,98391.32
2023-04-04T15:10:38.288Z,98398.92
2023-04-04T15:13:17.297Z,98397.45
2023-04-04T15:15:46.326Z,98394.73
2023-04-04T15:18:16.170Z,98397.74
2023-04-04T15:20:51.234Z,98403.22
2023-04-04T15:23:22.372Z,98405.17
2023-04-04T15:25:50.688Z,98407.46
2023-04-04T15:28:19.999Z,98404.91
2023-04-04T15:30:48.407Z,98405.49
2023-04-04T15:33:16.818Z,98414.32
2023-04-04T15:35:45.632Z,98411.73
2023-04-04T15:38:14.342Z,98414.32
2023-04-04T15:40:53.460Z,98412.92
2023-04-04T15:43:24.091Z,98417.23
2023-04-04T15:45:52.977Z,98420.77
2023-04-04T15:48:24.934Z,98421.39
2023-04-04T15:50:58.912Z,98422.56
2023-04-04T15:53:27.418Z,98423.45
2023-04-04T15:55:56.213Z,98421.99
2023-04-04T15:58:25.740Z,98420.38
2023-04-04T16:00:57.482Z,98417.29
2023-04-04T16:03:27.381Z,98416.14
2023-04-04T16:05:56.628Z,98417.12
2023-04-04T16:08:25.224Z,98424.21
2023-04-04T16:11:03.519Z,98417.30
2023-04-04T16:13:32.843Z,98417.90
2023-04-04T16:16:05.165Z,98420.04
2023-04-04T16:18:39.720Z,98417.08
2023-04-04T16:21:08.885Z,98416.04
2023-04-04T16:23:44.023Z,98417.58
2023-04-04T16:26:12.675Z,98419.45
2023-04-04T16:28:41.130Z,98419.43
2023-04-04T16:31:15.139Z,98424.11
2023-04-04T16:33:46.181Z,98425.16
2023-04-04T16:36:17.305Z,98428.98
2023-04-04T16:38:58.084Z,98429.31
2023-04-04T16:41:26.943Z,98433.86
2023-04-04T16:44:01.587Z,98437.42
2023-04-04T16:46:31.491Z,98435.07
2023-04-04T16:49:00.416Z,98436.17
2023-04-04T16:51:28.757Z,98437.02
2023-04-04T16:53:57.248Z,98434.81
2023-04-04T16:56:25.657Z,98431.27
2023-04-04T16:58:54.080Z,98432.36
2023-04-04T17:01:23.251Z,98434.08
2023-04-04T17:03:52.580Z,98434.18
2023-04-04T17:06:21.327Z,98437.27
2023-04-04T17:08:50.098Z,98431.83
2023-04-04T17:11:18.426Z,98437.67
2023-04-04T17:13:46.894Z,98439.45
2023-04-04T17:16:15.389Z,98439.05
2023-04-04T17:18:43.939Z,98438.95
2023-04-04T17:21:12.376Z,98440.02
2023-04-04T17:23:41.042Z,98440.56
2023-04-04T17:26:09.551Z,98441.40
2023-04-04T17:28:37.891Z,98444.92
2023-04-04T17:31:07.242Z,98446.21
2023-04-04T17:33:35.608Z,98453.27
2023-04-04T17:36:03.905Z,98447.75
2023-04-04T17:38:36.183Z,98447.34
2023-04-04T17:41:04.455Z,98449.36
2023-04-04T17:43:36.778Z,98453.38
2023-04-04T17:46:06.751Z,98456.54
2023-04-04T17:48:37.014Z,98459.09
2023-04-04T17:51:07.097Z,98460.20
2023-04-04T17:53:36.707Z,98460.17
2023-04-04T17:56:06.452Z,98458.42
2023-04-04T18:02:02.744Z,98458.77
2023-04-04T18:04:32.028Z,98468.47
2023-04-04T18:07:00.509Z,98467.95
2023-04-04T18:09:37.265Z,98469.50
2023-04-04T18:12:06.680Z,98470.33
2023-04-04T18:14:34.913Z,98473.83
2023-04-04T18:17:05.912Z,98474.69
2023-04-04T18:19:35.408Z,98475.77
2023-04-04T18:22:04.252Z,98476.20
2023-04-04T18:24:36.717Z,98474.49
2023-04-04T18:27:04.987Z,98476.56
2023-04-04T18:29:37.862Z,98479.30
2023-04-04T18:32:06.004Z,98479.88
2023-04-04T18:34:34.469Z,98479.33
2023-04-04T18:37:02.949Z,98481.27
2023-04-04T18:39:31.963Z,98480.33
2023-04-04T18:42:03.144Z,98479.38
2023-04-04T18:44:33.040Z,98479.43
2023-04-04T18:47:05.278Z,98482.69
2023-04-04T18:49:34.108Z,98484.89
2023-04-04T18:52:02.387Z,98479.85
2023-04-04T18:54:30.915Z,98477.66
2023-04-04T18:57:00.869Z,98480.59
2023-04-04T18:59:30.904Z,98478.30
2023-04-04T19:02:01.020Z,98475.45
2023-04-04T19:04:35.239Z,98477.29
2023-04-04T19:07:07.246Z,98475.92
2023-04-04T19:09:36.636Z,98472.98
2023-04-04T19:12:14.244Z,98472.33
2023-04-04T19:14:42.515Z,98475.14
2023-04-04T19:17:15.902Z,98474.92
2023-04-04T19:19:44.233Z,98469.89
2023-04-04T19:22:12.553Z,98467.48
2023-04-04T19:24:42.519Z,98470.52
2023-04-04T19:27:11.952Z,98468.48
2023-04-04T19:29:40.520Z,98464.32
2023-04-04T19:32:14.343Z,98467.13
2023-04-04T19:34:43.347Z,98467.30
2023-04-04T19:37:12.073Z,98468.02
2023-04-04T19:39:42.582Z,98464.73
2023-04-04T19:42:12.205Z,98468.16
2023-04-04T19:44:41.159Z,98467.27
2023-04-04T19:47:12.294Z,98465.79
2023-04-04T19:49:42.669Z,98469.64
2023-04-04T19:52:11.097Z,98472.66
2023-04-04T19:54:43.022Z,98473.27
2023-04-04T19:57:19.583Z,98476.80
2023-04-04T19:59:54.471Z,98475.58
2023-04-04T20:02:33.242Z,98472.61
2023-04-04T20:05:01.999Z,98477.97
2023-04-04T20:07:31.782Z,98479.54
2023-04-04T20:10:00.348Z,98478.14
2023-04-04T20:12:32.383Z,98475.69
2023-04-04T20:15:04.979Z,98474.95
2023-04-04T20:17:33.579Z,98476.69
2023-04-04T20:20:02.298Z,98473.95
2023-04-04T20:22:31.058Z,98468.48
2023-04-04T20:24:59.525Z,98467.67
2023-04-04T20:27:28.158Z,98465.63
2023-04-04T20:29:56.827Z,98460.50
2023-04-04T20:32:25.100Z,98459.63
2023-04-04T20:34:53.666Z,98458.17
2023-04-04T20:37:28.790Z,98459.83
2023-04-04T20:39:59.015Z,98461.36
2023-04-04T20:42:30.433Z,98461.33
2023-04-04T20:45:26.975Z,98460.88
2023-04-04T20:47:57.098Z,98462.90
2023-04-04T20:50:27.307Z,98467.48
2023-04-04T20:52:58.742Z,98460.55
2023-04-04T20:55:28.277Z,98459.24
2023-04-04T20:58:10.209Z,98456.97
2023-04-04T21:00:39.837Z,98454.88
2023-04-04T21:03:24.545Z,98454.55
2023-04-04T21:05:56.587Z,98452.63
2023-04-04T21:08:44.399Z,98453.48
2023-04-04T21:11:13.864Z,98451.23
2023-04-04T21:13:43.554Z,98450.12
2023-04-04T21:16:13.405Z,98449.53
2023-04-04T21:18:43.668Z,98449.45
2023-04-04T21:21:12.708Z,98450.81
2023-04-04T21:23:46.160Z,98450.27
2023-04-04T21:26:33.157Z,98455.86
2023-04-04T21:29:04.930Z,98451.80
2023-04-04T21:31:37.846Z,98449.16
2023-04-04T21:34:16.638Z,98449.05
2023-04-04T21:36:45.103Z,98450.07
2023-04-04T21:39:23.827Z,98448.13
2023-04-04T21:41:56.599Z,98447.03
2023-04-04T21:44:25.573Z,98448.69
2023-04-04T21:46:56.492Z,98445.75
2023-04-04T21:49:25.119Z,98444.85
2023-04-04T21:51:53.389Z,98442.73
2023-04-04T21:54:23.078Z,98441.34
2023-04-04T21:56:51.785Z,98440.96
2023-04-04T21:59:20.141Z,98440.22
2023-04-04T22:01:50.240Z,98434.45
2023-04-04T22:04:19.033Z,98429.34
2023-04-04T22:06:47.328Z,98430.11
2023-04-04T22:09:15.878Z,98432.06
2023-04-04T22:11:46.917Z,98429.61
2023-04-04T22:14:18.160Z,98428.89
2023-04-04T22:16:46.670Z,98425.55
2023-04-04T22:19:15.989Z,98428.49
2023-04-04T22:21:48.341Z,98428.23
2023-04-04T22:24:18.690Z,98430.98
2023-04-04T22:26:47.434Z,98434.58
2023-04-04T22:29:16.203Z,98433.34
2023-04-04T22:31:44.745Z,98435.13
2023-04-04T22:34:15.015Z,98433.63
2023-04-04T22:36:46.136Z,98433.08
2023-04-04T22:39:16.459Z,98437.88
2023-04-04T22:41:44.782Z,98439.02
2023-04-04T22:44:13.541Z,98437.33
2023-04-04T22:46:41.950Z,98439.44
2023-04-04T22:49:10.199Z,98441.84
2023-04-04T22:54:40.575Z,98434.85
2023-04-04T22:57:08.993Z,98429.64
2023-04-04T22:59:42.305Z,98424.55
2023-04-04T23:02:10.750Z,98425.23
2023-04-04T23:04:39.089Z,98423.86
2023-04-04T23:07:08.236Z,98424.14
2023-04-04T23:09:38.368Z,98418.45
2023-04-04T23:12:09.632Z,98419.00
2023-04-04T23:14:39.819Z,98415.91
2023-04-04T23:17:08.566Z,98418.60
2023-04-04T23:19:37.200Z,98416.61
2023-04-04T23:22:11.319Z,98416.95
2023-04-04T23:24:40.459Z,98412.25
2023-04-04T23:27:08.877Z,98410.36
2023-04-04T23:29:39.642Z,98408.67
2023-04-04T23:32:08.212Z,98404.55
2023-04-04T23:34:39.390Z,98406.13
2023-04-04T23:37:08.106Z,98405.61
2023-04-04T23:39:37.188Z,98405.48
2023-04-04T23:42:06.006Z,98402.70
2023-04-04T23:44:34.284Z,98397.98
2023-04-04T23:47:02.692Z,98396.06
2023-04-04T23:49:31.938Z,98392.45
2023-04-04T23:52:05.454Z,98395.88
2023-04-04T23:54:36.008Z,98393.47
2023-04-04T23:57:05.940Z,98392.52
2023-04-04T23:59:34.654Z,98397.28
